Time;durP1;ratioP1;P1;durP2;ratioP2;P2;SDS_P1;SDS_P2;PMS_P1;PMS_P2;Temp;Humidity;BMP_temperature;BMP_pressure;BME280_temperature;BME280_humidity;BME280_pressure;Samples;Min_cycle;Max_cycle;Signal;HPM_P1;HPM_P2
2022/07/06 00:02:22;;;;;;;7.60;4.90;;;;;;;17.46;100.00;99698.56;4342359;33;34989;-78
2022/07/06 00:05:09;;;;;;;7.68;5.45;;;;;;;17.03;100.00;99702.94;4343163;33;34169;-79
2022/07/06 00:07:55;;;;;;;6.20;5.10;;;;;;;17.22;100.00;99705.06;4340700;33;34755;-78
2022/07/06 00:10:41;;;;;;;7.95;4.87;;;;;;;17.22;100.00;99715.34;4342561;33;36048;-79
2022/07/06 00:13:28;;;;;;;9.55;5.85;;;;;;;17.13;100.00;99706.38;4343289;33;34880;-79
2022/07/06 00:16:14;;;;;;;8.32;5.95;;;;;;;17.32;100.00;99703.75;4340077;33;35040;-77
2022/07/06 00:19:00;;;;;;;7.65;5.15;;;;;;;17.28;100.00;99702.84;4341244;33;34694;-78
2022/07/06 00:21:46;;;;;;;6.62;5.15;;;;;;;17.37;100.00;99697.94;4342792;33;35697;-78
2022/07/06 00:24:33;;;;;;;7.68;5.43;;;;;;;17.19;100.00;99696.66;4342833;33;34440;-76
2022/07/06 00:27:19;;;;;;;7.22;5.40;;;;;;;16.87;100.00;99702.09;4351798;32;35452;-78
2022/07/06 00:30:06;;;;;;;9.43;5.95;;;;;;;16.93;100.00;99695.16;4343462;33;34263;-77
2022/07/06 00:32:53;;;;;;;9.70;5.50;;;;;;;16.70;100.00;99688.53;4338611;33;33270;-78
2022/07/06 00:35:39;;;;;;;8.85;5.35;;;;;;;17.04;100.00;99687.94;4342061;32;34526;-79
2022/07/06 00:38:25;;;;;;;9.90;5.68;;;;;;;16.80;100.00;99691.62;4343188;33;33999;-79
2022/07/06 00:41:15;;;;;;;7.62;5.85;;;;;;;17.13;100.00;99695.28;4342865;33;35589;-79
2022/07/06 00:44:07;;;;;;;8.57;5.55;;;;;;;16.91;100.00;99693.91;4342182;33;35057;-78
2022/07/06 00:46:53;;;;;;;12.05;5.47;;;;;;;17.25;100.00;99698.81;4340006;33;34900;-78
2022/07/06 00:52:46;;;;;;;8.85;5.72;;;;;;;16.98;100.00;99689.37;4343591;33;35138;-79
2022/07/06 00:55:35;;;;;;;8.10;5.60;;;;;;;16.50;100.00;99698.59;4331586;33;35006;-78
2022/07/06 00:58:21;;;;;;;8.52;5.43;;;;;;;16.88;100.00;99687.13;4341147;33;34895;-78
2022/07/06 01:01:09;;;;;;;7.15;5.80;;;;;;;16.80;100.00;99683.34;4351324;32;34331;-79
2022/07/06 01:03:55;;;;;;;8.40;6.20;;;;;;;16.52;100.00;99682.47;4346117;32;34215;-78
2022/07/06 01:06:43;;;;;;;9.90;5.90;;;;;;;16.45;100.00;99685.84;4340986;32;36030;-78
2022/07/06 01:09:29;;;;;;;10.13;5.68;;;;;;;16.35;100.00;99684.34;4345941;32;35688;-79
2022/07/06 01:12:16;;;;;;;6.97;5.50;;;;;;;16.91;100.00;99683.66;4343924;32;35038;-78
2022/07/06 01:15:05;;;;;;;8.27;5.97;;;;;;;17.35;100.00;99683.63;4340724;32;34716;-79
2022/07/06 01:17:51;;;;;;;6.28;5.62;;;;;;;17.13;100.00;99681.44;4337586;32;35003;-79
2022/07/06 01:20:38;;;;;;;13.95;7.50;;;;;;;17.15;100.00;99677.16;4343956;32;34973;-78
2022/07/06 01:23:24;;;;;;;7.30;5.57;;;;;;;16.78;100.00;99690.38;4354679;32;32315;-79
2022/07/06 01:26:18;;;;;;;9.60;5.70;;;;;;;16.94;100.00;99694.00;4356000;32;35246;-78
2022/07/06 01:29:05;;;;;;;9.52;5.62;;;;;;;16.78;100.00;99690.38;4354384;32;36006;-79
2022/07/06 01:31:51;;;;;;;6.80;5.57;;;;;;;16.98;100.00;99697.66;4345923;32;35702;-79
2022/07/06 01:34:37;;;;;;;9.02;6.35;;;;;;;16.95;100.00;99694.81;4353165;32;35228;-79
2022/07/06 01:37:23;;;;;;;9.38;6.05;;;;;;;16.66;100.00;99702.25;4348724;32;35554;-79
2022/07/06 01:40:11;;;;;;;7.72;5.68;;;;;;;16.52;100.00;99696.28;4353212;32;34941;-79
2022/07/06 01:42:57;;;;;;;7.55;5.55;;;;;;;16.99;100.00;99696.53;4343642;32;34876;-79
2022/07/06 01:45:44;;;;;;;12.60;7.10;;;;;;;16.65;100.00;99689.59;4342176;32;34951;-78
2022/07/06 01:48:31;;;;;;;10.02;6.80;;;;;;;16.85;100.00;99685.84;4347078;32;34736;-77
2022/07/06 01:51:18;;;;;;;8.77;6.55;;;;;;;16.36;100.00;99685.16;4350626;32;34978;-78
2022/07/06 01:54:04;;;;;;;8.55;7.28;;;;;;;16.16;100.00;99687.69;4347752;32;34884;-78
2022/07/06 01:56:51;;;;;;;11.32;7.47;;;;;;;16.12;100.00;99681.28;4347587;32;34535;-79
2022/07/06 01:59:37;;;;;;;12.68;6.70;;;;;;;16.22;100.00;99684.72;4350396;32;35572;-78
2022/07/06 02:02:24;;;;;;;7.78;6.55;;;;;;;16.46;100.00;99701.25;4339861;32;34560;-78
2022/07/06 02:05:10;;;;;;;9.40;6.97;;;;;;;16.87;100.00;99702.09;4349758;32;34809;-77
2022/07/06 02:07:56;;;;;;;10.65;6.90;;;;;;;16.74;100.00;99695.78;4357898;32;34157;-78
2022/07/06 02:10:44;;;;;;;9.57;6.80;;;;;;;16.18;100.00;99698.41;4358217;32;34267;-78
2022/07/06 02:13:31;;;;;;;12.35;7.68;;;;;;;16.41;100.00;99713.34;4357937;32;33971;-78
2022/07/06 02:16:19;;;;;;;10.77;6.90;;;;;;;16.19;100.00;99714.69;4338366;32;35672;-78
2022/07/06 02:19:05;;;;;;;9.23;6.97;;;;;;;16.25;100.00;99723.53;4355709;32;33402;-78
2022/07/06 02:21:51;;;;;;;10.98;7.20;;;;;;;16.63;100.00;99723.12;4359145;32;35584;-78
2022/07/06 02:24:38;;;;;;;10.45;7.53;;;;;;;16.51;100.00;99725.91;4358886;32;35060;-78
2022/07/06 02:27:25;;;;;;;14.73;8.38;;;;;;;16.30;100.00;99731.56;4358994;32;34665;-77
2022/07/06 02:30:12;;;;;;;11.30;8.60;;;;;;;16.18;100.00;99726.06;4359054;32;34453;-78
2022/07/06 02:32:58;;;;;;;11.88;7.65;;;;;;;16.14;100.00;99714.91;4358040;32;35312;-78
2022/07/06 02:35:45;;;;;;;12.52;8.50;;;;;;;16.24;100.00;99704.53;4334351;32;35976;-77
2022/07/06 02:38:31;;;;;;;10.23;8.85;;;;;;;16.01;100.00;99695.91;4358478;32;36289;-77
2022/07/06 02:41:18;;;;;;;10.43;8.90;;;;;;;16.04;100.00;99695.22;4358934;32;35039;-78
2022/07/06 02:44:04;;;;;;;11.90;9.02;;;;;;;15.95;100.00;99706.38;4358404;32;34678;-78
2022/07/06 02:46:51;;;;;;;12.63;8.75;;;;;;;16.17;100.00;99702.34;4357946;32;36031;-78
2022/07/06 02:49:38;;;;;;;11.15;9.07;;;;;;;15.95;100.00;99709.94;4356981;32;35879;-77
2022/07/06 02:52:24;;;;;;;11.60;9.35;;;;;;;15.95;100.00;99720.19;4353722;32;33988;-78
2022/07/06 02:55:11;;;;;;;12.13;8.90;;;;;;;15.95;100.00;99726.53;4357969;32;35445;-77
2022/07/06 02:57:57;;;;;;;9.82;8.32;;;;;;;16.01;100.00;99738.16;4357285;32;35038;-78
2022/07/06 03:00:44;;;;;;;9.93;8.48;;;;;;;16.00;100.00;99738.53;4357388;32;34616;-78
2022/07/06 03:03:30;;;;;;;11.10;8.52;;;;;;;15.89;100.00;99750.00;4358710;32;34454;-79
2022/07/06 03:06:17;;;;;;;12.02;8.75;;;;;;;15.98;100.00;99758.19;4357507;32;34755;-79
2022/07/06 03:09:03;;;;;;;11.77;8.98;;;;;;;16.00;100.00;99758.66;4356048;32;33949;-78
2022/07/06 03:11:50;;;;;;;12.10;8.85;;;;;;;16.01;100.00;99765.00;4345512;32;33896;-79
2022/07/06 03:14:36;;;;;;;12.27;9.05;;;;;;;16.38;100.00;99746.44;4357564;32;33999;-77
2022/07/06 03:17:23;;;;;;;13.00;8.50;;;;;;;16.37;100.00;99764.19;4359260;32;35649;-78
2022/07/06 03:20:10;;;;;;;11.35;8.95;;;;;;;15.99;100.00;99765.31;4357670;32;34970;-80
2022/07/06 03:22:57;;;;;;;10.32;8.13;;;;;;;16.28;100.00;99755.19;4358369;32;34926;-79
2022/07/06 03:25:44;;;;;;;11.15;7.93;;;;;;;16.66;100.00;99765.09;4358167;32;34015;-79
2022/07/06 03:28:31;;;;;;;12.73;8.07;;;;;;;16.32;100.00;99767.19;4352009;32;34738;-79
2022/07/06 03:31:17;;;;;;;10.52;7.53;;;;;;;16.64;100.00;99785.59;4354803;32;35972;-78
2022/07/06 03:34:06;;;;;;;11.35;7.07;;;;;;;16.90;100.00;99781.63;4346566;32;35440;-79
2022/07/06 03:36:52;;;;;;;9.43;7.18;;;;;;;16.72;100.00;99777.50;4358304;32;34357;-77
2022/07/06 03:39:40;;;;;;;10.85;7.30;;;;;;;16.60;100.00;99783.88;4341849;32;34729;-80
2022/07/06 03:42:26;;;;;;;10.88;6.93;;;;;;;16.58;100.00;99775.91;4358750;32;34565;-79
2022/07/06 03:45:14;;;;;;;9.77;7.37;;;;;;;16.50;100.00;99779.59;4355263;32;35395;-79
2022/07/06 03:48:00;;;;;;;9.95;7.10;;;;;;;16.67;100.00;99772.22;4357507;32;34977;-79
2022/07/06 03:50:48;;;;;;;12.00;7.20;;;;;;;16.80;100.00;99765.53;4358391;32;34730;-79
2022/07/06 03:53:35;;;;;;;10.70;7.25;;;;;;;16.54;100.00;99763.16;4345220;32;36010;-79
2022/07/06 03:56:27;;;;;;;9.18;6.97;;;;;;;16.74;100.00;99758.63;4344086;32;35675;-77
2022/07/06 03:59:14;;;;;;;11.90;7.70;;;;;;;16.61;100.00;99769.69;4357190;32;34837;-77
2022/07/06 04:02:01;;;;;;;11.05;7.72;;;;;;;16.60;100.00;99759.78;4347820;32;35948;-77
2022/07/06 04:04:48;;;;;;;10.10;7.47;;;;;;;16.51;100.00;99756.34;4346427;32;34890;-78
2022/07/06 04:07:34;;;;;;;11.23;7.82;;;;;;;16.35;100.00;99758.19;4344114;32;34530;-80
2022/07/06 04:10:21;;;;;;;9.98;7.55;;;;;;;16.92;100.00;99748.91;4352911;32;34377;-80
2022/07/06 04:13:07;;;;;;;11.75;7.37;;;;;;;16.79;100.00;99750.91;4356396;32;34453;-79
2022/07/06 04:15:54;;;;;;;10.68;7.12;;;;;;;16.60;100.00;99762.56;4342918;32;34701;-78
2022/07/06 04:18:40;;;;;;;18.23;7.55;;;;;;;16.51;100.00;99764.66;4353303;32;37173;-79
2022/07/06 04:21:28;;;;;;;9.43;7.15;;;;;;;17.05;100.00;99767.09;4348281;32;35407;-80
2022/07/06 04:24:14;;;;;;;13.40;7.50;;;;;;;16.92;100.00;99762.72;4348668;32;35457;-80
2022/07/06 04:27:01;;;;;;;10.95;7.45;;;;;;;16.63;100.00;99756.31;4340677;32;35003;-79
2022/07/06 04:29:47;;;;;;;10.52;7.32;;;;;;;16.80;100.00;99754.47;4343761;32;35331;-79
2022/07/06 04:32:34;;;;;;;13.13;7.72;;;;;;;16.73;100.00;99749.47;4343651;32;34067;-78
2022/07/06 04:35:21;;;;;;;12.57;7.85;;;;;;;16.79;100.00;99747.31;4336431;32;33102;-77
2022/07/06 04:38:09;;;;;;;10.02;6.95;;;;;;;16.68;100.00;99751.69;4343278;32;34945;-78
2022/07/06 04:40:55;;;;;;;11.12;7.20;;;;;;;16.88;100.00;99739.69;4350679;32;34648;-77
2022/07/06 04:43:43;;;;;;;9.48;7.43;;;;;;;16.95;100.00;99750.97;4357206;32;35199;-79
2022/07/06 04:46:31;;;;;;;11.82;7.40;;;;;;;16.97;100.00;99756.16;4356702;32;35619;-77
2022/07/06 04:49:18;;;;;;;10.10;6.85;;;;;;;17.07;100.00;99761.97;4337570;32;35983;-77
2022/07/06 04:52:04;;;;;;;12.32;7.22;;;;;;;17.01;100.00;99771.69;4356329;32;34565;-79
2022/07/06 04:54:51;;;;;;;9.60;6.95;;;;;;;17.14;100.00;99752.28;4341071;32;34311;-78
2022/07/06 04:57:38;;;;;;;10.38;7.37;;;;;;;16.81;100.00;99756.87;4352219;32;34711;-77
2022/07/06 05:00:25;;;;;;;11.57;7.12;;;;;;;16.86;100.00;99764.13;4352911;32;35954;-79
2022/07/06 05:03:11;;;;;;;10.18;6.85;;;;;;;17.42;100.00;99761.38;4345470;32;34894;-78
2022/07/06 05:05:57;;;;;;;10.20;6.35;;;;;;;17.43;100.00;99763.00;4357026;32;34086;-80
2022/07/06 05:08:44;;;;;;;8.00;6.15;;;;;;;17.51;100.00;99767.56;4357509;32;34290;-80
2022/07/06 05:11:30;;;;;;;7.62;6.15;;;;;;;17.64;100.00;99764.72;4356181;32;35690;-78
2022/07/06 05:14:17;;;;;;;9.45;6.10;;;;;;;17.46;100.00;99773.37;4346364;32;34882;-78
2022/07/06 05:17:04;;;;;;;8.68;6.50;;;;;;;17.33;100.00;99769.03;4346109;32;33941;-78
2022/07/06 05:19:50;;;;;;;10.25;6.72;;;;;;;17.36;100.00;99760.03;4357323;32;35628;-78
2022/07/06 05:22:37;;;;;;;8.35;6.68;;;;;;;17.41;100.00;99765.31;4356612;32;36024;-79
2022/07/06 05:25:32;;;;;;;10.50;6.57;;;;;;;17.69;100.00;99761.69;4342730;32;35752;-80
2022/07/06 05:28:19;;;;;;;10.63;6.30;;;;;;;17.85;100.00;99770.88;4354738;32;35239;-79
2022/07/06 05:31:07;;;;;;;9.00;6.35;;;;;;;17.73;100.00;99768.94;4336377;32;35288;-78
2022/07/06 05:33:54;;;;;;;7.50;5.50;;;;;;;17.90;100.00;99787.25;4358357;32;35631;-78
2022/07/06 05:36:40;;;;;;;8.70;6.35;;;;;;;17.89;100.00;99782.84;4337226;32;34314;-77
2022/07/06 05:39:27;;;;;;;11.60;6.40;;;;;;;17.70;100.00;99779.91;4349850;32;34393;-77
2022/07/06 05:42:13;;;;;;;12.70;7.12;;;;;;;17.91;100.00;99791.62;4358232;32;35625;-77
2022/07/06 05:45:00;;;;;;;9.43;6.62;;;;;;;17.74;100.00;99801.03;4346140;32;418205;-79
2022/07/06 05:50:52;;;;;;;9.73;6.60;;;;;;;18.12;100.00;99798.84;4359285;32;33454;-81
2022/07/06 05:53:40;;;;;;;12.02;6.60;;;;;;;18.15;100.00;99800.91;4358781;32;34646;-79
2022/07/06 05:56:26;;;;;;;9.77;6.37;;;;;;;18.19;100.00;99810.94;4359027;32;35070;-78
2022/07/06 05:59:13;;;;;;;8.43;6.72;;;;;;;18.40;99.10;99812.63;4358996;32;34332;-77
2022/07/06 06:01:59;;;;;;;10.15;6.60;;;;;;;18.17;99.92;99818.00;4355229;32;35393;-79
2022/07/06 06:04:46;;;;;;;14.50;7.47;;;;;;;18.17;100.00;99826.31;4359156;32;34685;-79
2022/07/06 06:07:34;;;;;;;8.70;5.95;;;;;;;18.50;98.93;99827.91;4358949;32;34998;-79
2022/07/06 06:10:24;;;;;;;10.88;6.45;;;;;;;18.77;96.09;99827.00;4337207;32;34894;-80
2022/07/06 06:13:10;;;;;;;9.68;6.75;;;;;;;18.91;95.32;99834.88;4359102;32;35177;-79
2022/07/06 06:15:57;;;;;;;9.38;6.65;;;;;;;18.84;96.19;99829.12;4348606;32;35517;-78
2022/07/06 06:18:44;;;;;;;9.98;7.47;;;;;;;19.06;96.18;99833.19;4356316;32;34444;-78
2022/07/06 06:21:30;;;;;;;11.70;7.22;;;;;;;18.85;97.07;99828.78;4359131;32;35856;-79
2022/07/06 06:24:16;;;;;;;8.65;7.00;;;;;;;19.39;95.51;99831.94;4341161;32;35265;-78
2022/07/06 06:27:03;;;;;;;9.25;7.12;;;;;;;19.38;95.15;99827.50;4359158;32;34640;-78
2022/07/06 06:29:49;;;;;;;14.05;7.60;;;;;;;18.99;96.36;99822.75;4357687;32;34576;-78
2022/07/06 06:32:35;;;;;;;12.73;7.65;;;;;;;19.09;94.78;99821.38;4353596;32;34576;-79
2022/07/06 06:35:22;;;;;;;10.60;7.12;;;;;;;19.35;95.30;99823.50;4358116;32;35334;-78
2022/07/06 06:38:08;;;;;;;11.10;7.20;;;;;;;19.33;93.80;99820.28;4358960;32;34741;-78
2022/07/06 06:40:54;;;;;;;11.15;7.30;;;;;;;19.18;95.33;99829.47;4357972;32;35030;-78
2022/07/06 06:43:40;;;;;;;9.88;7.47;;;;;;;19.25;95.04;99827.66;4355450;32;34318;-77
2022/07/06 06:46:27;;;;;;;10.27;6.93;;;;;;;19.46;92.78;99829.28;4342470;32;33826;-78
2022/07/06 06:49:13;;;;;;;10.60;6.72;;;;;;;19.48;92.55;99830.53;4357123;32;34299;-79
2022/07/06 06:52:00;;;;;;;9.07;6.80;;;;;;;19.82;89.69;99836.38;4345347;32;34583;-78
2022/07/06 06:55:07;;;;;;;10.75;6.50;;;;;;;19.86;88.97;99836.44;4350402;32;34934;-79
2022/07/06 06:57:53;;;;;;;8.73;5.97;;;;;;;20.04;88.80;99829.22;4341322;32;34444;-79
2022/07/06 07:00:40;;;;;;;7.82;6.07;;;;;;;20.31;86.67;99840.41;4357723;32;34370;-79
2022/07/06 07:03:26;;;;;;;9.15;5.97;;;;;;;20.35;86.83;99830.12;4359093;32;35070;-78
2022/07/06 07:06:12;;;;;;;9.52;5.75;;;;;;;20.67;85.24;99837.06;4359302;32;34933;-79
2022/07/06 07:08:59;;;;;;;9.23;5.12;;;;;;;20.58;84.56;99832.94;4358291;32;35193;-80
2022/07/06 07:11:45;;;;;;;10.90;5.80;;;;;;;21.51;81.35;99835.03;4358139;32;34209;-80
2022/07/06 07:14:32;;;;;;;8.07;5.05;;;;;;;21.32;80.33;99832.41;4358706;32;36374;-79
2022/07/06 07:17:18;;;;;;;6.87;4.95;;;;;;;21.42;78.03;99830.94;4358312;32;35148;-80
2022/07/06 07:20:05;;;;;;;8.05;4.97;;;;;;;21.50;78.16;99838.22;4346858;32;34685;-81
2022/07/06 07:22:52;;;;;;;6.57;4.22;;;;;;;21.78;76.06;99834.94;4350044;32;33575;-80
2022/07/06 07:25:39;;;;;;;5.80;4.28;;;;;;;21.77;73.71;99830.53;4358151;32;34932;-80
2022/07/06 07:28:26;;;;;;;8.90;4.72;;;;;;;22.28;73.33;99820.69;4358433;32;34736;-79
2022/07/06 07:31:12;;;;;;;5.78;4.60;;;;;;;22.34;72.38;99822.78;4360183;32;34406;-80
2022/07/06 07:33:59;;;;;;;5.82;4.30;;;;;;;22.56;72.86;99820.13;4359909;32;34638;-78
2022/07/06 07:36:45;;;;;;;6.53;4.28;;;;;;;22.38;72.90;99831.97;4357760;32;36040;-79
2022/07/06 07:39:32;;;;;;;7.85;5.87;;;;;;;22.62;69.35;99826.94;4359753;32;34952;-78
2022/07/06 07:42:18;;;;;;;10.80;5.47;;;;;;;22.26;74.84;99840.63;4359944;32;34467;-79
2022/07/06 07:45:05;;;;;;;9.80;5.10;;;;;;;22.78;72.00;99844.22;4359269;32;35311;-79
2022/07/06 07:47:51;;;;;;;9.10;4.95;;;;;;;22.49;73.39;99837.62;4359741;32;35001;-78
2022/07/06 07:50:37;;;;;;;7.15;5.35;;;;;;;22.43;72.14;99837.19;4360189;32;34824;-79
2022/07/06 07:53:24;;;;;;;7.95;4.43;;;;;;;22.50;72.29;99835.63;4346145;32;35076;-78
2022/07/06 07:56:10;;;;;;;6.68;4.43;;;;;;;22.81;70.41;99835.06;4352956;32;36099;-79
2022/07/06 07:58:57;;;;;;;6.07;4.35;;;;;;;23.10;69.05;99835.25;4360851;32;34603;-78
2022/07/06 08:01:44;;;;;;;7.65;4.62;;;;;;;23.33;66.73;99841.37;4347771;32;35794;-78
2022/07/06 08:04:30;;;;;;;9.80;5.32;;;;;;;23.61;65.86;99825.91;4352667;32;34464;-78
2022/07/06 08:07:17;;;;;;;6.22;4.90;;;;;;;23.44;66.25;99835.81;4351776;32;34630;-77
2022/07/06 08:10:04;;;;;;;5.53;4.47;;;;;;;23.18;67.06;99838.91;4341727;32;33649;-76
2022/07/06 08:12:50;;;;;;;4.85;3.50;;;;;;;23.07;65.88;99836.84;4352852;32;34950;-78
2022/07/06 08:15:37;;;;;;;6.57;3.72;;;;;;;23.39;62.65;99843.78;4350532;32;34389;-78
2022/07/06 08:18:23;;;;;;;5.15;4.00;;;;;;;23.92;60.46;99838.41;4346066;32;34681;-78
2022/07/06 08:21:11;;;;;;;5.22;4.30;;;;;;;24.36;59.50;99851.25;4334340;32;34876;-78
2022/07/06 08:24:13;;;;;;;7.07;4.32;;;;;;;24.23;58.57;99848.03;4344852;32;34846;-77
2022/07/06 08:26:59;;;;;;;7.32;4.65;;;;;;;24.27;59.31;99847.25;4333536;32;35527;-78
2022/07/06 08:29:46;;;;;;;6.07;4.80;;;;;;;24.16;62.35;99848.06;4344414;32;35477;-78
2022/07/06 08:32:32;;;;;;;9.60;5.20;;;;;;;24.62;59.71;99846.50;4356495;32;35103;-78
2022/07/06 08:35:38;;;;;;;9.25;5.82;;;;;;;24.36;61.36;99840.06;4353088;32;35708;-77
2022/07/06 08:38:24;;;;;;;6.60;5.18;;;;;;;23.86;64.21;99855.97;4353877;32;35427;-77
2022/07/06 08:41:13;;;;;;;8.55;5.30;;;;;;;24.37;62.45;99852.06;4353083;32;34537;-76
2022/07/06 08:44:06;;;;;;;9.45;6.20;;;;;;;24.64;61.28;99858.06;4340852;32;36071;-75
2022/07/06 08:46:54;;;;;;;8.13;5.80;;;;;;;24.52;60.96;99862.09;4352413;32;34895;-77
2022/07/06 08:49:42;;;;;;;8.38;6.00;;;;;;;24.35;61.91;99866.44;4345238;32;33759;-77
2022/07/06 08:52:28;;;;;;;7.12;5.60;;;;;;;24.40;60.08;99873.66;4352802;32;34752;-75
2022/07/06 08:55:16;;;;;;;8.07;5.10;;;;;;;24.26;60.35;99868.03;4351473;32;34994;-77
2022/07/06 08:58:04;;;;;;;6.75;5.55;;;;;;;24.55;58.64;99857.69;4351850;32;34526;-76
2022/07/06 09:00:50;;;;;;;7.90;5.00;;;;;;;24.64;57.66;99860.88;4359547;32;34298;-77
2022/07/06 09:03:39;;;;;;;10.38;5.32;;;;;;;24.82;57.86;99866.47;4359397;32;34625;-76
2022/07/06 09:06:27;;;;;;;7.03;4.68;;;;;;;25.10;56.31;99855.22;4347909;32;34997;-76
2022/07/06 09:09:19;;;;;;;7.95;5.47;;;;;;;24.54;57.82;99862.50;4360625;32;34612;-76
2022/07/06 09:12:11;;;;;;;7.70;5.35;;;;;;;24.46;57.84;99855.28;4336588;32;34714;-76
2022/07/06 09:14:58;;;;;;;6.90;4.93;;;;;;;24.57;57.42;99856.09;4358219;32;35454;-78
2022/07/06 09:17:44;;;;;;;7.15;5.45;;;;;;;24.81;56.10;99870.47;4358193;32;36113;-78
2022/07/06 09:20:31;;;;;;;10.40;5.12;;;;;;;25.04;54.40;99856.81;4348853;32;35662;-78
2022/07/06 09:23:17;;;;;;;7.57;4.60;;;;;;;25.59;53.22;99852.66;4347844;32;33982;-79
2022/07/06 09:26:07;;;;;;;5.40;4.03;;;;;;;25.96;50.15;99852.09;4358268;32;34259;-78
2022/07/06 09:28:56;;;;;;;6.12;3.90;;;;;;;24.96;50.13;99863.66;4358919;32;35021;-79
2022/07/06 09:31:42;;;;;;;5.20;4.18;;;;;;;25.50;47.74;99861.53;4357824;32;34888;-79
2022/07/06 09:34:45;;;;;;;4.87;4.00;;;;;;;25.70;48.22;99863.81;4347590;32;34157;-78
2022/07/06 09:37:31;;;;;;;6.45;5.05;;;;;;;25.20;48.28;99862.00;4346228;32;33687;-78
2022/07/06 09:40:18;;;;;;;5.60;3.65;;;;;;;25.17;52.06;99868.44;4359466;32;34957;-78
2022/07/06 09:43:18;;;;;;;4.95;3.67;;;;;;;25.72;46.19;99856.59;4335231;32;35722;-78
2022/07/06 09:46:05;;;;;;;7.65;3.72;;;;;;;25.97;44.84;99842.44;4359425;32;35252;-78
2022/07/06 09:48:53;;;;;;;7.12;4.70;;;;;;;26.66;44.54;99840.72;4360339;32;35687;-77
2022/07/06 09:51:39;;;;;;;6.40;4.90;;;;;;;26.55;46.12;99850.47;4350598;32;34522;-78
2022/07/06 09:54:26;;;;;;;6.20;4.62;;;;;;;26.25;46.39;99849.09;4360069;32;34932;-77
2022/07/06 09:57:13;;;;;;;9.15;5.43;;;;;;;26.63;45.81;99854.81;4347065;32;34359;-75
2022/07/06 09:59:59;;;;;;;6.97;4.75;;;;;;;25.92;47.36;99862.53;4359334;32;33589;-79
2022/07/06 10:02:57;;;;;;;7.25;5.35;;;;;;;25.76;49.34;99851.78;4356171;32;35523;-78
2022/07/06 10:05:49;;;;;;;7.90;4.32;;;;;;;26.47;46.33;99856.13;4359324;32;34938;-77
2022/07/06 10:08:37;;;;;;;7.82;4.32;;;;;;;26.18;46.23;99860.34;4345980;32;35235;-78
2022/07/06 10:11:24;;;;;;;5.95;4.00;;;;;;;26.01;44.90;99862.88;4359857;32;34711;-77
2022/07/06 10:14:13;;;;;;;6.40;4.32;;;;;;;26.90;44.37;99857.78;4325952;32;34906;-77
2022/07/06 10:17:01;;;;;;;7.30;4.30;;;;;;;26.28;42.71;99859.50;4340606;32;34827;-77
2022/07/06 10:19:50;;;;;;;4.85;3.25;;;;;;;26.47;40.77;99852.53;4347348;32;35359;-77
2022/07/06 10:22:36;;;;;;;7.62;3.47;;;;;;;27.04;37.46;99857.63;4344811;32;34132;-78
2022/07/06 10:25:23;;;;;;;4.00;3.50;;;;;;;27.07;37.32;99865.25;4339046;32;34681;-78
2022/07/06 10:28:14;;;;;;;6.12;3.58;;;;;;;27.32;37.71;99859.38;4359190;32;34970;-78
2022/07/06 10:31:01;;;;;;;6.12;4.20;;;;;;;27.64;37.78;99852.53;4358455;32;34873;-78
2022/07/06 10:33:48;;;;;;;3.72;3.37;;;;;;;27.80;35.23;99858.34;4358914;32;34440;-79
2022/07/06 10:36:42;;;;;;;4.05;3.60;;;;;;;27.86;33.24;99855.06;4359710;32;34886;-78
2022/07/06 10:42:44;;;;;;;5.20;3.70;;;;;;;28.32;34.82;99857.22;4345580;32;34288;-78
2022/07/06 10:45:36;;;;;;;4.57;3.40;;;;;;;28.01;33.50;99857.28;4348568;32;34720;-77
2022/07/06 10:48:22;;;;;;;4.57;3.78;;;;;;;28.77;32.63;99854.06;4358730;32;36006;-77
2022/07/06 10:51:23;;;;;;;6.00;3.87;;;;;;;27.93;33.73;99852.97;4343419;32;34959;-77
2022/07/06 10:54:09;;;;;;;4.07;3.22;;;;;;;27.92;32.64;99857.00;4358749;32;33210;-77
2022/07/06 10:56:55;;;;;;;5.93;3.80;;;;;;;27.59;33.86;99862.25;4353768;32;34630;-78
2022/07/06 11:00:00;;;;;;;5.32;3.80;;;;;;;27.34;34.11;99853.31;4356917;32;34409;-77
2022/07/06 11:02:47;;;;;;;5.95;3.67;;;;;;;27.65;32.77;99870.22;4359483;32;34569;-77
2022/07/06 11:05:40;;;;;;;5.25;3.90;;;;;;;28.01;32.86;99862.13;4343798;32;34968;-77
2022/07/06 11:08:56;;;;;;;6.07;4.10;;;;;;;28.49;32.93;99855.38;4349030;32;35683;-75
2022/07/06 11:11:45;;;;;;;5.20;3.85;;;;;;;28.02;33.51;99855.25;4358983;32;35903;-77
2022/07/06 11:14:35;;;;;;;8.13;4.43;;;;;;;28.12;33.82;99854.31;4360243;32;35697;-78
2022/07/06 11:17:24;;;;;;;4.90;3.78;;;;;;;28.10;31.33;99851.09;4348151;32;33971;-77
2022/07/06 11:20:11;;;;;;;4.97;3.70;;;;;;;27.92;30.51;99848.56;4343798;32;34671;-76
2022/07/06 11:22:58;;;;;;;5.10;3.65;;;;;;;28.09;30.94;99860.78;4348202;32;35992;-75
2022/07/06 11:25:45;;;;;;;6.85;3.40;;;;;;;27.89;31.43;99868.31;4360480;32;35382;-77
2022/07/06 11:28:32;;;;;;;4.32;3.50;;;;;;;28.60;30.47;99855.16;4345222;32;35342;-77
2022/07/06 11:31:19;;;;;;;6.37;3.90;;;;;;;28.63;29.96;99852.31;4342273;32;34148;-78
2022/07/06 11:34:06;;;;;;;5.45;4.20;;;;;;;28.30;30.07;99858.88;4353378;32;35086;-77
2022/07/06 11:37:04;;;;;;;4.95;4.00;;;;;;;28.95;30.73;99856.56;4344062;32;35857;-75
2022/07/06 11:39:50;;;;;;;3.92;2.97;;;;;;;28.56;29.63;99860.88;4345371;32;35359;-77
2022/07/06 11:42:37;;;;;;;3.42;2.53;;;;;;;28.23;28.24;99871.03;4360022;32;34882;-77
2022/07/06 11:45:26;;;;;;;5.43;3.35;;;;;;;28.86;27.12;99876.03;4359172;32;35029;-78
2022/07/06 11:48:14;;;;;;;7.40;3.70;;;;;;;28.35;27.72;99869.66;4348632;32;34959;-75
2022/07/06 11:51:00;;;;;;;4.45;3.40;;;;;;;28.18;29.85;99871.53;4359537;32;35299;-77
2022/07/06 11:53:49;;;;;;;3.65;2.55;;;;;;;28.44;29.21;99876.38;4359386;32;34697;-78
2022/07/06 11:56:54;;;;;;;4.97;3.12;;;;;;;28.08;26.62;99866.84;4343391;32;34470;-78
2022/07/06 11:59:42;;;;;;;7.32;3.78;;;;;;;29.07;26.89;99867.22;4344688;32;34865;-76
2022/07/06 12:02:28;;;;;;;4.50;3.20;;;;;;;29.28;26.48;99868.03;4336682;32;35361;-76
2022/07/06 12:05:29;;;;;;;4.37;3.62;;;;;;;28.76;27.94;99882.69;4346629;32;34257;-76
2022/07/06 12:08:15;;;;;;;;;;;;;;;28.95;26.91;99869.88;4358009;32;35029;-76
2022/07/06 12:11:02;;;;;;;7.30;4.07;;;;;;;28.37;28.50;99870.00;4347139;32;35120;-76
2022/07/06 12:13:52;;;;;;;4.03;3.47;;;;;;;28.79;28.50;99879.00;4357896;32;34282;-77
2022/07/06 12:16:39;;;;;;;5.12;3.60;;;;;;;28.50;27.10;99882.31;4345916;32;34215;-78
2022/07/06 12:19:25;;;;;;;5.05;3.42;;;;;;;28.56;28.05;99882.62;4344828;32;35483;-77
2022/07/06 12:22:12;;;;;;;4.40;3.53;;;;;;;28.27;28.24;99876.63;4343534;32;34810;-77
2022/07/06 12:24:58;;;;;;;5.32;3.15;;;;;;;28.66;28.14;99870.34;4342932;32;34374;-76
2022/07/06 12:27:51;;;;;;;8.48;3.80;;;;;;;28.78;28.18;99883.06;4359702;32;35659;-74
2022/07/06 12:30:45;;;;;;;7.30;4.45;;;;;;;28.79;28.03;99895.94;4358094;32;34966;-76
2022/07/06 12:33:32;;;;;;;5.35;3.28;;;;;;;28.80;28.69;99886.22;4357556;32;35041;-74
2022/07/06 12:36:18;;;;;;;5.10;3.70;;;;;;;27.76;29.06;99877.31;4357416;32;34356;-75
2022/07/06 12:39:11;;;;;;;4.62;3.85;;;;;;;27.93;29.66;99866.25;4356032;32;34617;-76
2022/07/06 12:42:02;;;;;;;5.65;4.03;;;;;;;28.40;28.63;99869.16;4346712;32;35608;-77
2022/07/06 12:44:51;;;;;;;5.10;3.55;;;;;;;28.47;28.45;99863.44;4358161;32;35819;-76
2022/07/06 12:47:42;;;;;;;4.15;3.30;;;;;;;28.42;28.69;99870.34;4345882;32;35275;-76
2022/07/06 12:50:35;;;;;;;4.40;3.30;;;;;;;27.89;29.09;99871.13;4358181;32;35283;-76
2022/07/06 12:53:25;;;;;;;6.37;3.50;;;;;;;27.61;29.38;99864.66;4346939;32;34608;-77
2022/07/06 12:56:14;;;;;;;6.12;3.25;;;;;;;28.23;29.53;99871.84;4342088;32;35829;-77
2022/07/06 12:59:00;;;;;;;4.95;3.28;;;;;;;28.40;28.29;99863.50;4357180;32;34397;-76
2022/07/06 13:01:47;;;;;;;4.28;3.00;;;;;;;28.53;28.58;99864.53;4343552;32;35610;-76
2022/07/06 13:04:34;;;;;;;4.18;3.10;;;;;;;27.79;29.19;99864.44;4331711;32;34933;-75
2022/07/06 13:07:25;;;;;;;3.30;2.80;;;;;;;28.24;28.52;99862.16;4348767;32;34390;-76
2022/07/06 13:10:13;;;;;;;4.75;3.10;;;;;;;29.03;26.73;99863.69;4337331;32;34364;-77
2022/07/06 13:13:00;;;;;;;3.05;2.70;;;;;;;28.83;27.09;99863.63;4351550;32;34611;-76